Time;durP1;ratioP1;P1;durP2;ratioP2;P2;SDS_P1;SDS_P2;PMS_P1;PMS_P2;Temp;Humidity;BMP_temperature;BMP_pressure;BME280_temperature;BME280_humidity;BME280_pressure;Samples;Min_cycle;Max_cycle;Signal;HPM_P1;HPM_P2
2022/09/14 00:01:37;;;;;;;10.38;8.77;;;18.30;99.90;;;;;;5113264;28;20733;-50
2022/09/14 00:04:09;;;;;;;14.65;9.98;;;18.30;99.90;;;;;;5113764;28;20296;-51
2022/09/14 00:06:38;;;;;;;9.85;8.77;;;18.30;99.90;;;;;;5113352;28;20230;-51
2022/09/14 00:09:07;;;;;;;10.90;9.45;;;18.30;99.90;;;;;;5113552;28;20235;-51
2022/09/14 00:11:36;;;;;;;10.48;8.65;;;18.30;99.90;;;;;;5113090;28;20199;-50
2022/09/14 00:14:06;;;;;;;10.75;8.57;;;18.20;99.90;;;;;;5106260;28;20659;-51
2022/09/14 00:16:37;;;;;;;9.40;8.48;;;18.20;99.90;;;;;;5112534;28;20650;-51
2022/09/14 00:19:07;;;;;;;10.30;8.95;;;18.20;99.90;;;;;;5113009;28;20649;-51
2022/09/14 00:21:36;;;;;;;11.50;9.60;;;18.20;99.90;;;;;;5113815;28;20330;-51
2022/09/14 00:24:05;;;;;;;11.93;10.73;;;18.30;99.90;;;;;;5113450;28;20207;-51
2022/09/14 00:26:34;;;;;;;11.85;10.25;;;18.30;99.90;;;;;;5113588;28;20816;-51
2022/09/14 00:29:03;;;;;;;11.95;10.55;;;18.30;99.90;;;;;;5111411;28;20254;-51
2022/09/14 00:31:36;;;;;;;15.70;11.50;;;18.30;99.90;;;;;;5113555;28;20286;-51
2022/09/14 00:34:05;;;;;;;11.90;10.70;;;18.30;99.90;;;;;;5110143;28;20960;-51
2022/09/14 00:36:37;;;;;;;12.68;11.02;;;18.20;99.90;;;;;;5113211;28;20292;-51
2022/09/14 00:39:06;;;;;;;12.80;11.40;;;18.20;99.90;;;;;;5113714;28;20223;-51
2022/09/14 00:41:36;;;;;;;11.95;10.75;;;18.30;99.90;;;;;;5112636;28;20203;-49
2022/09/14 00:44:06;;;;;;;13.75;11.23;;;18.20;99.90;;;;;;5113394;28;20206;-51
2022/09/14 00:46:39;;;;;;;12.05;10.63;;;18.20;99.90;;;;;;5113204;28;20243;-51
2022/09/14 00:49:08;;;;;;;13.68;11.23;;;18.20;99.90;;;;;;5099175;28;20742;-51
2022/09/14 00:51:41;;;;;;;11.63;10.43;;;18.20;99.90;;;;;;5099572;28;20245;-52
2022/09/14 00:54:09;;;;;;;14.85;10.95;;;18.20;99.90;;;;;;5084262;28;20211;-51
2022/09/14 00:56:37;;;;;;;12.63;11.13;;;18.10;99.90;;;;;;5112436;28;20234;-51
2022/09/14 00:59:12;;;;;;;12.85;10.32;;;18.10;99.90;;;;;;5110926;28;20605;-51
2022/09/14 01:01:42;;;;;;;10.10;9.10;;;18.20;99.90;;;;;;5111809;28;20289;-51
2022/09/14 01:04:10;;;;;;;10.68;9.57;;;18.20;99.90;;;;;;5112561;28;20287;-51
2022/09/14 01:06:44;;;;;;;11.15;9.65;;;18.10;99.90;;;;;;5110791;28;20240;-50
2022/09/14 01:09:21;;;;;;;11.38;10.02;;;18.20;99.90;;;;;;5112438;28;20272;-51
2022/09/14 01:12:05;;;;;;;15.82;13.15;;;18.20;99.90;;;;;;5112316;28;20254;-51
2022/09/14 01:14:42;;;;;;;15.60;14.00;;;18.20;99.90;;;;;;5103086;28;20291;-51
2022/09/14 01:17:16;;;;;;;14.00;12.50;;;18.20;99.90;;;;;;5112889;28;20258;-51
2022/09/14 01:20:04;;;;;;;12.43;11.02;;;18.20;99.90;;;;;;5111645;28;20268;-51
2022/09/14 01:22:37;;;;;;;12.13;10.93;;;18.20;99.90;;;;;;5112300;28;20305;-51
2022/09/14 01:25:16;;;;;;;15.00;13.40;;;18.20;99.90;;;;;;5112033;28;20731;-51
2022/09/14 01:27:46;;;;;;;14.20;12.13;;;18.20;99.90;;;;;;5111155;28;20293;-51
2022/09/14 01:30:19;;;;;;;14.05;12.27;;;18.10;99.90;;;;;;5110988;28;20200;-51
2022/09/14 01:32:53;;;;;;;15.85;12.32;;;18.20;99.90;;;;;;5110998;28;20287;-51
2022/09/14 01:35:28;;;;;;;17.20;13.50;;;18.20;99.90;;;;;;5111194;28;20299;-51
2022/09/14 01:38:01;;;;;;;15.43;12.95;;;18.20;99.90;;;;;;5112008;28;20231;-51
2022/09/14 01:40:33;;;;;;;12.52;11.27;;;18.20;99.90;;;;;;5111324;28;20676;-50
2022/09/14 01:43:09;;;;;;;14.00;12.50;;;18.20;99.90;;;;;;5110281;28;20254;-51
2022/09/14 01:45:41;;;;;;;12.95;10.77;;;18.20;99.90;;;;;;5112010;28;20664;-51
2022/09/14 01:48:12;;;;;;;14.52;11.88;;;18.20;99.90;;;;;;5112067;28;20224;-51
2022/09/14 01:50:44;;;;;;;12.88;10.32;;;18.10;99.90;;;;;;5108704;28;20747;-51
2022/09/14 01:53:16;;;;;;;15.40;11.80;;;18.10;99.90;;;;;;5109289;28;20959;-51
2022/09/14 01:55:48;;;;;;;13.00;10.90;;;18.10;99.90;;;;;;5109082;28;20309;-51
2022/09/14 01:58:24;;;;;;;13.35;11.95;;;18.10;99.90;;;;;;5103483;28;20232;-51
2022/09/14 02:00:55;;;;;;;13.85;12.45;;;18.10;99.90;;;;;;5111605;28;20211;-51
2022/09/14 02:03:27;;;;;;;13.90;11.88;;;18.10;99.90;;;;;;5111323;28;20696;-51
2022/09/14 02:06:00;;;;;;;20.80;16.00;;;18.10;99.90;;;;;;5105809;28;20231;-50
2022/09/14 02:08:30;;;;;;;16.40;14.25;;;18.20;99.90;;;;;;5090989;28;20660;-51
2022/09/14 02:10:58;;;;;;;19.23;15.50;;;18.10;99.90;;;;;;5090860;28;20296;-51
2022/09/14 02:13:29;;;;;;;19.98;16.27;;;18.10;99.90;;;;;;5090662;28;20240;-51
2022/09/14 02:15:57;;;;;;;23.17;17.27;;;18.20;99.90;;;;;;5078487;28;20678;-51
2022/09/14 02:18:25;;;;;;;20.95;16.20;;;18.20;99.90;;;;;;5088324;28;20231;-50
2022/09/14 02:20:56;;;;;;;17.73;14.30;;;18.20;99.90;;;;;;5090535;28;20295;-51
2022/09/14 02:23:25;;;;;;;14.25;12.75;;;18.20;99.90;;;;;;5087119;28;20654;-51
2022/09/14 02:25:53;;;;;;;15.40;12.38;;;18.20;99.90;;;;;;5080427;28;20258;-51
2022/09/14 02:28:21;;;;;;;17.27;14.45;;;18.10;99.90;;;;;;5090340;28;20220;-51
2022/09/14 02:31:00;;;;;;;20.02;15.07;;;18.10;99.90;;;;;;5090680;28;20219;-51
2022/09/14 02:33:35;;;;;;;17.35;14.95;;;18.10;99.90;;;;;;5090718;28;20250;-51
2022/09/14 02:36:12;;;;;;;21.45;15.27;;;18.10;99.90;;;;;;5090044;28;20294;-51
2022/09/14 02:38:46;;;;;;;26.60;18.67;;;18.00;99.90;;;;;;5090409;28;20255;-51
2022/09/14 02:41:22;;;;;;;19.67;15.95;;;18.10;99.90;;;;;;5080907;28;20204;-51
2022/09/14 02:43:55;;;;;;;21.88;17.23;;;18.10;99.90;;;;;;5087042;28;20219;-51
2022/09/14 02:46:32;;;;;;;18.55;15.63;;;18.10;99.90;;;;;;5089963;28;20240;-51
2022/09/14 02:49:07;;;;;;;16.73;14.43;;;18.10;99.90;;;;;;5089479;28;20225;-50
2022/09/14 02:51:43;;;;;;;19.00;16.10;;;18.10;99.90;;;;;;5089940;28;20212;-51
2022/09/14 02:54:15;;;;;;;20.13;17.23;;;18.10;99.90;;;;;;5090122;28;20307;-51
2022/09/14 02:56:43;;;;;;;18.38;15.48;;;18.20;99.90;;;;;;5095461;28;20292;-51
2022/09/14 02:59:12;;;;;;;18.52;15.85;;;18.20;99.90;;;;;;5111087;28;20270;-51
2022/09/14 03:01:41;;;;;;;15.98;14.30;;;18.10;99.90;;;;;;5110272;28;20704;-51
2022/09/14 03:04:09;;;;;;;20.33;17.52;;;18.10;99.90;;;;;;5110241;28;20223;-51
2022/09/14 03:06:37;;;;;;;18.92;14.65;;;18.10;99.90;;;;;;5110197;28;21013;-51
2022/09/14 03:09:06;;;;;;;15.40;13.80;;;18.10;99.90;;;;;;5110270;28;20314;-51
2022/09/14 03:11:34;;;;;;;16.58;14.85;;;18.10;99.90;;;;;;5108797;28;20319;-51
2022/09/14 03:14:02;;;;;;;15.73;13.48;;;18.10;99.90;;;;;;5110200;28;20392;-51
2022/09/14 03:16:30;;;;;;;22.98;18.20;;;18.20;99.90;;;;;;5077135;28;20236;-51
2022/09/14 03:19:00;;;;;;;21.58;18.30;;;18.20;99.90;;;;;;5089313;28;20243;-51
2022/09/14 03:21:28;;;;;;;17.90;15.10;;;18.10;99.90;;;;;;5089792;28;20228;-51
2022/09/14 03:23:56;;;;;;;17.48;15.35;;;18.10;99.90;;;;;;5089291;28;20318;-51
2022/09/14 03:26:27;;;;;;;14.13;12.70;;;18.20;99.90;;;;;;5089450;28;20211;-51
2022/09/14 03:28:57;;;;;;;13.10;11.90;;;18.10;99.90;;;;;;5089832;28;20224;-51
2022/09/14 03:31:26;;;;;;;15.18;13.68;;;18.20;99.90;;;;;;5089362;28;20232;-51
2022/09/14 03:33:55;;;;;;;14.55;13.05;;;18.10;99.90;;;;;;5080250;28;20204;-51
2022/09/14 03:36:26;;;;;;;13.30;12.00;;;18.10;99.90;;;;;;5089436;28;20214;-51
2022/09/14 03:38:56;;;;;;;15.32;13.60;;;18.10;99.90;;;;;;5089825;28;20259;-51
2022/09/14 03:41:25;;;;;;;16.05;13.40;;;18.10;99.90;;;;;;5089221;28;20737;-51
2022/09/14 03:43:53;;;;;;;14.05;12.63;;;18.20;99.90;;;;;;5089692;28;20262;-51
2022/09/14 03:46:23;;;;;;;17.13;14.70;;;18.20;99.90;;;;;;5089255;28;20218;-51
2022/09/14 03:48:52;;;;;;;13.50;12.10;;;18.10;99.90;;;;;;5089344;28;20232;-51
2022/09/14 03:51:20;;;;;;;15.20;13.07;;;18.20;99.90;;;;;;5089239;28;20240;-51
2022/09/14 03:53:49;;;;;;;13.23;11.85;;;18.10;99.90;;;;;;5088985;28;20214;-51
2022/09/14 03:56:20;;;;;;;13.43;11.43;;;18.20;99.90;;;;;;5089292;28;20214;-51
2022/09/14 03:58:49;;;;;;;15.70;14.13;;;18.20;99.90;;;;;;5089135;28;20315;-51
2022/09/14 04:01:20;;;;;;;15.75;13.38;;;18.20;99.90;;;;;;5089143;28;20242;-51
2022/09/14 04:03:49;;;;;;;14.27;12.88;;;18.20;99.90;;;;;;5089071;28;20310;-51
2022/09/14 04:06:18;;;;;;;18.98;15.60;;;18.10;99.90;;;;;;5088627;28;20208;-51
2022/09/14 04:08:46;;;;;;;14.00;12.48;;;18.20;99.90;;;;;;5089026;28;20316;-51
2022/09/14 04:11:18;;;;;;;11.63;10.52;;;18.20;99.90;;;;;;5089255;28;20286;-51
2022/09/14 04:13:47;;;;;;;13.93;12.52;;;18.10;99.90;;;;;;5088793;28;20210;-51
2022/09/14 04:16:16;;;;;;;12.85;10.63;;;18.10;99.90;;;;;;5075392;28;20348;-51
2022/09/14 04:18:44;;;;;;;11.15;10.15;;;18.20;99.90;;;;;;5088706;28;20251;-51
2022/09/14 04:21:18;;;;;;;12.23;10.73;;;18.20;99.90;;;;;;5089094;28;20257;-51
2022/09/14 04:23:47;;;;;;;12.48;10.95;;;18.20;99.90;;;;;;5088865;28;20668;-50
2022/09/14 04:26:36;;;;;;;14.07;11.60;;;18.20;99.90;;;;;;5087958;28;20670;-51
2022/09/14 04:29:04;;;;;;;12.20;10.95;;;18.20;99.90;;;;;;5089180;28;20666;-51
2022/09/14 04:31:33;;;;;;;12.07;10.85;;;18.10;99.90;;;;;;5088641;28;20688;-51
2022/09/14 04:34:01;;;;;;;15.27;12.70;;;18.10;99.90;;;;;;5088439;28;20200;-51
2022/09/14 04:36:29;;;;;;;16.38;12.07;;;18.20;99.90;;;;;;5088663;28;20242;-51
2022/09/14 04:39:00;;;;;;;11.95;10.57;;;18.20;99.90;;;;;;5088051;28;20828;-51
2022/09/14 04:41:29;;;;;;;15.48;11.52;;;18.20;99.90;;;;;;5090623;28;20200;-51
2022/09/14 04:43:59;;;;;;;11.55;9.48;;;18.10;99.90;;;;;;5094653;28;20226;-51
2022/09/14 04:46:29;;;;;;;14.73;11.20;;;18.10;99.90;;;;;;5094746;28;20626;-51
2022/09/14 04:48:58;;;;;;;16.48;11.85;;;18.10;99.90;;;;;;5095221;28;20224;-51
2022/09/14 04:51:28;;;;;;;11.63;9.98;;;18.10;99.90;;;;;;5092599;28;20204;-51
2022/09/14 04:53:58;;;;;;;14.05;10.07;;;18.10;99.90;;;;;;5092584;28;20242;-51
2022/09/14 04:56:28;;;;;;;17.40;11.35;;;18.10;99.90;;;;;;5092953;28;20253;-51
2022/09/14 04:58:59;;;;;;;9.80;8.27;;;18.10;99.90;;;;;;5092653;28;20302;-50
2022/09/14 05:01:28;;;;;;;14.02;9.55;;;18.20;99.90;;;;;;5092816;28;20316;-51
2022/09/14 05:03:57;;;;;;;10.63;8.63;;;18.10;99.90;;;;;;5092524;28;20219;-51
2022/09/14 05:06:27;;;;;;;10.80;8.75;;;18.10;99.90;;;;;;5092681;28;20212;-51
2022/09/14 05:08:56;;;;;;;14.40;9.95;;;18.10;99.90;;;;;;5092638;28;20263;-51
2022/09/14 05:11:27;;;;;;;12.70;9.95;;;18.10;99.90;;;;;;5091984;28;20235;-51
2022/09/14 05:13:56;;;;;;;11.18;8.00;;;18.10;99.90;;;;;;5091874;28;20697;-51
2022/09/14 05:16:27;;;;;;;10.55;8.30;;;18.10;99.90;;;;;;5077972;28;20203;-51
2022/09/14 05:19:00;;;;;;;14.60;9.77;;;18.10;99.90;;;;;;5092103;28;20262;-51
2022/09/14 05:21:29;;;;;;;9.82;7.93;;;18.10;99.90;;;;;;5091763;28;20216;-51
2022/09/14 05:24:01;;;;;;;9.80;8.60;;;18.10;99.90;;;;;;5091689;28;20291;-51
2022/09/14 05:26:31;;;;;;;13.38;9.32;;;18.10;99.90;;;;;;5091108;28;20212;-51
2022/09/14 05:29:00;;;;;;;10.55;8.25;;;18.10;99.90;;;;;;5091869;28;20693;-51
2022/09/14 05:31:31;;;;;;;18.73;10.73;;;18.10;99.90;;;;;;5091403;28;20287;-51
2022/09/14 05:34:00;;;;;;;17.88;9.75;;;18.10;99.90;;;;;;5091599;28;20231;-51
2022/09/14 05:36:28;;;;;;;13.45;9.25;;;18.20;99.90;;;;;;5090978;28;20573;-51
2022/09/14 05:38:57;;;;;;;18.23;10.52;;;18.10;99.90;;;;;;5090736;28;20224;-51
2022/09/14 05:41:26;;;;;;;13.25;8.48;;;18.10;99.90;;;;;;5090736;28;20304;-51
2022/09/14 05:43:54;;;;;;;12.07;9.10;;;18.10;99.90;;;;;;5086857;28;20838;-51
2022/09/14 05:46:22;;;;;;;9.35;7.45;;;18.20;99.90;;;;;;5090138;28;20232;-51
2022/09/14 05:48:51;;;;;;;15.45;9.40;;;18.20;99.90;;;;;;5089732;28;20252;-51
2022/09/14 05:51:21;;;;;;;9.77;7.88;;;18.20;99.90;;;;;;5090870;28;20257;-51
2022/09/14 05:53:51;;;;;;;16.90;10.65;;;18.20;99.90;;;;;;5086043;28;20255;-51
2022/09/14 05:56:20;;;;;;;12.10;9.55;;;18.10;99.90;;;;;;5085133;28;20257;-51
2022/09/14 05:58:49;;;;;;;18.75;12.52;;;18.20;99.90;;;;;;5090503;28;20227;-51
2022/09/14 06:01:19;;;;;;;16.33;11.65;;;18.20;99.90;;;;;;5094191;28;20230;-51
2022/09/14 06:03:48;;;;;;;18.13;13.05;;;18.20;99.90;;;;;;5090437;28;20226;-51
2022/09/14 06:06:19;;;;;;;16.67;12.80;;;18.20;99.90;;;;;;5089738;28;20315;-51
2022/09/14 06:08:51;;;;;;;18.25;14.27;;;18.10;99.90;;;;;;5090308;28;20231;-51
2022/09/14 06:11:22;;;;;;;26.58;16.77;;;18.20;99.90;;;;;;5078941;28;20292;-50
2022/09/14 06:13:50;;;;;;;20.08;15.35;;;18.20;99.90;;;;;;5070946;28;20768;-51
2022/09/14 06:16:20;;;;;;;38.35;26.15;;;18.20;99.90;;;;;;5072591;28;20208;-50
2022/09/14 06:18:49;;;;;;;29.10;22.85;;;18.10;99.90;;;;;;5081106;28;20252;-51
2022/09/14 06:21:21;;;;;;;32.67;20.85;;;18.20;99.90;;;;;;5089727;28;20247;-50
2022/09/14 06:23:50;;;;;;;23.05;17.58;;;18.20;99.90;;;;;;5089829;28;20209;-51
2022/09/14 06:26:19;;;;;;;20.27;16.50;;;18.20;99.90;;;;;;5090689;28;20331;-51
2022/09/14 06:28:47;;;;;;;23.83;18.25;;;18.20;99.90;;;;;;5089873;28;20275;-51
2022/09/14 06:31:17;;;;;;;24.90;18.02;;;18.20;99.90;;;;;;5089297;28;20205;-50
2022/09/14 06:33:47;;;;;;;30.42;21.38;;;18.20;99.90;;;;;;5089178;28;20303;-51
2022/09/14 06:36:18;;;;;;;31.50;20.40;;;18.20;99.90;;;;;;5089528;28;20299;-51
2022/09/14 06:38:48;;;;;;;21.50;16.83;;;18.20;99.90;;;;;;5089853;28;20224;-50
2022/09/14 06:41:19;;;;;;;35.65;24.35;;;18.20;99.90;;;;;;5090340;28;20214;-50
2022/09/14 06:43:48;;;;;;;41.85;29.05;;;18.20;99.90;;;;;;5089593;28;20200;-50
2022/09/14 06:46:18;;;;;;;24.73;18.15;;;18.20;99.90;;;;;;5090281;28;20255;-50
2022/09/14 06:48:48;;;;;;;42.17;28.35;;;18.20;99.90;;;;;;5089293;28;20784;-51
2022/09/14 06:51:18;;;;;;;25.45;19.10;;;18.20;99.90;;;;;;5080790;28;20200;-50
2022/09/14 06:53:49;;;;;;;29.38;21.45;;;18.20;99.90;;;;;;5090048;28;20208;-50
2022/09/14 06:56:18;;;;;;;18.85;14.68;;;18.20;99.90;;;;;;5089822;28;20242;-51
2022/09/14 06:58:47;;;;;;;20.77;15.90;;;18.20;99.90;;;;;;5089964;28;20260;-51
2022/09/14 07:01:18;;;;;;;19.60;15.05;;;18.20;99.90;;;;;;5078508;28;20291;-51
2022/09/14 07:03:47;;;;;;;39.15;27.20;;;18.20;99.90;;;;;;5089885;28;20746;-51
2022/09/14 07:06:18;;;;;;;41.00;30.77;;;18.20;99.90;;;;;;5083759;28;21094;-51
2022/09/14 07:08:49;;;;;;;21.77;16.48;;;18.30;99.90;;;;;;5085496;28;20236;-50
2022/09/14 07:11:19;;;;;;;19.15;14.65;;;18.30;99.90;;;;;;5087207;28;20318;-51
2022/09/14 07:13:47;;;;;;;24.45;16.92;;;18.20;99.90;;;;;;5088860;28;20291;-51
2022/09/14 07:16:16;;;;;;;21.85;15.32;;;18.20;99.90;;;;;;5084609;28;20664;-51
2022/09/14 07:18:44;;;;;;;17.05;13.32;;;18.20;99.90;;;;;;5089553;28;20239;-51
2022/09/14 07:21:14;;;;;;;20.35;15.50;;;18.30;99.90;;;;;;5087857;28;20208;-51
2022/09/14 07:23:44;;;;;;;17.85;14.00;;;18.20;99.90;;;;;;5086824;28;20243;-51
2022/09/14 07:26:16;;;;;;;17.65;14.45;;;18.30;99.90;;;;;;5083502;28;20323;-50
2022/09/14 07:28:46;;;;;;;19.17;15.27;;;18.30;99.90;;;;;;5087349;28;20227;-51
2022/09/14 07:31:17;;;;;;;28.92;18.70;;;18.30;99.90;;;;;;5084642;28;20291;-51
2022/09/14 07:33:45;;;;;;;19.95;15.25;;;18.30;99.90;;;;;;5085846;28;20708;-51
2022/09/14 07:36:15;;;;;;;18.35;15.38;;;18.30;99.90;;;;;;5087553;28;20709;-50
2022/09/14 07:38:43;;;;;;;22.63;17.55;;;18.30;99.90;;;;;;5087627;28;20263;-51
2022/09/14 07:41:23;;;;;;;22.35;16.60;;;18.30;99.90;;;;;;5086732;28;20279;-51
2022/09/14 07:43:58;;;;;;;23.88;18.52;;;18.30;99.90;;;;;;5086232;28;20202;-51
2022/09/14 07:46:28;;;;;;;20.83;17.63;;;18.40;99.90;;;;;;5088174;28;20315;-51
2022/09/14 07:48:58;;;;;;;21.30;17.13;;;18.40;99.90;;;;;;5087983;28;20224;-51
2022/09/14 07:51:27;;;;;;;18.10;14.05;;;18.40;99.90;;;;;;5088907;28;20291;-51
2022/09/14 07:53:55;;;;;;;24.42;16.77;;;18.40;99.90;;;;;;5088864;28;20214;-51
2022/09/14 07:56:25;;;;;;;17.50;14.07;;;18.40;99.90;;;;;;5087982;28;20231;-51
2022/09/14 07:58:54;;;;;;;18.63;14.63;;;18.40;99.90;;;;;;5088316;28;20685;-50
2022/09/14 08:01:42;;;;;;;21.77;16.00;;;18.40;99.90;;;;;;5088267;28;20919;-50
2022/09/14 08:04:11;;;;;;;33.10;21.90;;;18.40;99.90;;;;;;5087861;28;20231;-51
2022/09/14 08:06:39;;;;;;;22.50;16.63;;;18.50;99.90;;;;;;5081560;28;20711;-50
2022/09/14 08:09:08;;;;;;;22.05;14.82;;;18.40;99.90;;;;;;5087767;28;20307;-50
2022/09/14 08:11:38;;;;;;;22.10;15.18;;;18.50;99.90;;;;;;5087362;28;20205;-51
2022/09/14 08:14:10;;;;;;;15.38;12.18;;;18.50;99.90;;;;;;5087667;28;20858;-51
2022/09/14 08:16:39;;;;;;;24.35;15.50;;;18.50;99.90;;;;;;5089730;28;20204;-49
2022/09/14 08:19:11;;;;;;;22.92;13.82;;;18.50;99.90;;;;;;5091847;28;20612;-50
2022/09/14 08:21:40;;;;;;;19.05;12.75;;;18.50;99.90;;;;;;5077580;28;20225;-51
2022/09/14 08:24:15;;;;;;;16.58;11.43;;;18.50;99.90;;;;;;5092319;28;20204;-51
2022/09/14 08:26:45;;;;;;;14.05;10.55;;;18.60;99.90;;;;;;5084492;28;20263;-51
2022/09/14 08:29:14;;;;;;;16.33;11.45;;;18.60;99.90;;;;;;5091528;28;20311;-51
2022/09/14 08:31:44;;;;;;;13.70;10.50;;;18.60;99.90;;;;;;5091831;28;20291;-51
2022/09/14 08:34:14;;;;;;;12.73;9.70;;;18.60;99.90;;;;;;5088904;28;20209;-52
2022/09/14 08:36:44;;;;;;;12.35;9.95;;;18.60;99.90;;;;;;5090188;28;20224;-50
2022/09/14 08:39:13;;;;;;;14.45;11.55;;;18.70;99.90;;;;;;5093270;28;20261;-51
2022/09/14 08:41:51;;;;;;;10.38;8.27;;;18.60;99.90;;;;;;5091743;28;20266;-51
2022/09/14 08:44:24;;;;;;;9.00;7.80;;;18.60;99.90;;;;;;5091570;28;20314;-50
2022/09/14 08:46:58;;;;;;;10.75;8.68;;;18.60;99.90;;;;;;5092422;28;20224;-50
2022/09/14 08:49:39;;;;;;;10.25;7.93;;;18.70;99.90;;;;;;5078756;28;20236;-51
2022/09/14 08:52:13;;;;;;;10.68;9.57;;;18.70;99.90;;;;;;5090401;28;20200;-50
2022/09/14 08:54:41;;;;;;;12.73;10.73;;;18.70;99.90;;;;;;5090224;28;20208;-51
2022/09/14 08:57:17;;;;;;;10.88;9.77;;;18.70;99.90;;;;;;5089597;28;20208;-51
2022/09/14 08:59:55;;;;;;;9.40;8.45;;;18.80;99.90;;;;;;5086862;28;20291;-51
2022/09/14 09:02:34;;;;;;;8.80;7.50;;;18.80;99.90;;;;;;5089170;28;20216;-51
2022/09/14 09:05:20;;;;;;;13.82;9.82;;;18.80;99.90;;;;;;5089345;28;20303;-51
2022/09/14 09:07:55;;;;;;;13.02;9.60;;;18.80;99.90;;;;;;5089615;28;20334;-51
2022/09/14 09:10:26;;;;;;;9.23;8.20;;;18.80;99.90;;;;;;5091262;28;20357;-51
2022/09/14 09:13:00;;;;;;;7.63;6.93;;;18.80;99.90;;;;;;5090603;28;20251;-51
2022/09/14 09:15:31;;;;;;;8.68;7.78;;;18.80;99.90;;;;;;5084029;28;20296;-51
2022/09/14 09:18:04;;;;;;;11.35;6.75;;;18.80;99.90;;;;;;5092376;28;20316;-50
2022/09/14 09:20:36;;;;;;;4.57;4.15;;;18.80;99.90;;;;;;5089744;28;20207;-50
2022/09/14 09:23:11;;;;;;;4.15;3.78;;;18.80;99.90;;;;;;5090903;28;21115;-51
2022/09/14 09:25:51;;;;;;;2.88;2.67;;;18.80;99.90;;;;;;5091779;28;20284;-51
2022/09/14 09:28:23;;;;;;;4.03;3.60;;;18.70;99.90;;;;;;5089889;28;20228;-51
2022/09/14 09:30:52;;;;;;;5.00;3.10;;;18.60;99.90;;;;;;5089375;28;20208;-51
2022/09/14 09:33:23;;;;;;;2.90;2.70;;;18.60;99.90;;;;;;5090435;28;20204;-51
2022/09/14 09:35:52;;;;;;;2.92;2.72;;;18.60;99.90;;;;;;5091721;28;20265;-51
2022/09/14 09:38:24;;;;;;;3.65;2.75;;;18.60;99.90;;;;;;5090870;28;20756;-51
2022/09/14 09:40:56;;;;;;;2.67;2.35;;;18.60;99.90;;;;;;5091547;28;20239;-51
2022/09/14 09:43:25;;;;;;;3.45;2.88;;;18.60;99.90;;;;;;5087824;28;20212;-50
2022/09/14 09:46:14;;;;;;;3.03;2.55;;;18.60;99.90;;;;;;5090849;28;20204;-50
2022/09/14 09:48:45;;;;;;;3.10;2.33;;;18.50;99.90;;;;;;5090535;28;20315;-50
2022/09/14 09:51:15;;;;;;;2.92;2.45;;;18.50;99.90;;;;;;5090807;28;20295;-50
2022/09/14 09:53:50;;;;;;;2.90;2.70;;;18.50;99.90;;;;;;5090544;28;20226;-51
2022/09/14 09:56:22;;;;;;;2.85;2.42;;;18.60;99.90;;;;;;5090357;28;21020;-51
2022/09/14 09:58:52;;;;;;;2.75;2.50;;;18.50;99.90;;;;;;5090151;28;20768;-51
2022/09/14 10:01:22;;;;;;;2.90;2.70;;;18.50;99.90;;;;;;5083689;28;20301;-51
2022/09/14 10:04:06;;;;;;;2.63;2.30;;;18.50;99.90;;;;;;5088495;28;20699;-51
2022/09/14 10:06:42;;;;;;;2.80;2.60;;;18.50;99.90;;;;;;5090183;28;20230;-51
2022/09/14 10:09:15;;;;;;;2.75;2.55;;;18.50;99.90;;;;;;5090060;28;20220;-51
2022/09/14 10:11:45;;;;;;;2.90;2.60;;;18.60;99.90;;;;;;5089764;28;20640;-51
2022/09/14 10:14:25;;;;;;;3.25;2.95;;;18.50;99.90;;;;;;5105416;28;20247;-50
2022/09/14 10:17:03;;;;;;;3.13;2.92;;;18.60;99.90;;;;;;5078194;28;20286;-50
2022/09/14 10:19:33;;;;;;;3.45;2.90;;;18.60;99.90;;;;;;5089745;28;20196;-51
2022/09/14 10:22:16;;;;;;;3.03;2.83;;;18.60;99.90;;;;;;5089463;28;20204;-51
2022/09/14 10:24:56;;;;;;;3.55;2.92;;;18.70;99.90;;;;;;5093714;28;20212;-50
2022/09/14 10:27:38;;;;;;;3.30;3.00;;;18.70;99.90;;;;;;5089747;28;20270;-50
2022/09/14 10:30:13;;;;;;;2.60;2.40;;;18.70;99.90;;;;;;5089144;28;20200;-51
2022/09/14 10:32:45;;;;;;;2.40;2.20;;;18.70;99.90;;;;;;5089375;28;20228;-50
2022/09/14 10:35:16;;;;;;;2.42;2.22;;;18.80;99.90;;;;;;5089795;28;20287;-51
2022/09/14 10:38:01;;;;;;;2.38;2.17;;;18.80;99.90;;;;;;5089902;28;20216;-50
2022/09/14 10:40:36;;;;;;;4.00;2.90;;;18.80;99.90;;;;;;5086710;28;20196;-50
2022/09/14 10:43:13;;;;;;;2.72;2.53;;;18.80;99.90;;;;;;5081849;28;20287;-51
2022/09/14 10:45:49;;;;;;;2.30;2.17;;;18.80;99.90;;;;;;5089344;28;20231;-51
2022/09/14 10:48:47;;;;;;;2.25;2.15;;;18.80;99.90;;;;;;5089692;28;20232;-50
2022/09/14 10:51:33;;;;;;;2.30;2.20;;;18.80;99.90;;;;;;5086716;28;20273;-50
2022/09/14 10:54:13;;;;;;;2.72;2.53;;;18.80;99.90;;;;;;5089368;28;20745;-51
2022/09/14 10:56:54;;;;;;;2.50;2.40;;;18.90;99.90;;;;;;5101247;28;20290;-51
2022/09/14 10:59:31;;;;;;;3.13;2.90;;;19.00;99.90;;;;;;5089258;28;20676;-51
2022/09/14 11:02:32;;;;;;;3.03;2.83;;;19.20;99.90;;;;;;5089038;28;20212;-50
2022/09/14 11:05:14;;;;;;;4.28;3.97;;;19.30;99.90;;;;;;5086613;28;20258;-50
2022/09/14 11:07:55;;;;;;;3.42;3.22;;;19.40;99.90;;;;;;5088156;28;20223;-51
2022/09/14 11:10:31;;;;;;;4.45;4.00;;;19.40;99.90;;;;;;5073980;28;20674;-51
2022/09/14 11:13:25;;;;;;;3.63;3.25;;;19.40;99.90;;;;;;5086643;28;20712;-51
2022/09/14 11:16:00;;;;;;;3.30;3.00;;;19.50;99.90;;;;;;5085367;28;20218;-53
2022/09/14 11:18:38;;;;;;;3.00;2.70;;;19.40;99.90;;;;;;5072395;28;20220;-53
2022/09/14 11:21:15;;;;;;;3.15;2.95;;;19.20;99.90;;;;;;5084052;28;20239;-53
2022/09/14 11:23:49;;;;;;;2.72;2.53;;;19.30;99.90;;;;;;5089094;28;20269;-53
2022/09/14 11:26:23;;;;;;;3.25;2.97;;;19.20;99.90;;;;;;5088354;28;20204;-54
2022/09/14 11:28:54;;;;;;;3.58;2.72;;;19.20;99.90;;;;;;5089142;28;20227;-53
2022/09/14 11:31:28;;;;;;;2.90;2.70;;;19.10;99.90;;;;;;5089430;28;20243;-54
2022/09/14 11:34:05;;;;;;;2.47;2.28;;;18.90;99.90;;;;;;5087247;28;20207;-53
2022/09/14 11:36:37;;;;;;;4.32;2.53;;;18.80;99.90;;;;;;5088838;28;20291;-53
2022/09/14 11:39:15;;;;;;;2.25;2.05;;;18.70;99.90;;;;;;5088554;28;20270;-53
2022/09/14 11:41:49;;;;;;;1.92;1.83;;;18.70;99.90;;;;;;5084654;28;20253;-52
2022/09/14 11:44:21;;;;;;;1.77;1.67;;;18.70;99.90;;;;;;5087930;28;20291;-53
2022/09/14 11:46:55;;;;;;;2.10;2.00;;;18.80;99.90;;;;;;5088322;28;20232;-53
2022/09/14 11:49:39;;;;;;;2.30;2.20;;;18.90;99.90;;;;;;5087621;28;20688;-53
2022/09/14 11:52:13;;;;;;;2.00;1.90;;;18.90;99.90;;;;;;5085319;28;20242;-53
2022/09/14 11:54:41;;;;;;;2.03;1.77;;;18.90;99.90;;;;;;5086189;28;20790;-53
2022/09/14 11:57:17;;;;;;;1.92;1.83;;;18.80;99.90;;;;;;5087140;28;20277;-53
2022/09/14 11:59:53;;;;;;;1.73;1.63;;;18.90;99.90;;;;;;5087207;28;20192;-53
2022/09/14 12:02:58;;;;;;;1.60;1.50;;;18.90;99.90;;;;;;5087209;28;20231;-53
2022/09/14 12:05:36;;;;;;;1.38;1.30;;;18.90;99.90;;;;;;5082735;28;20311;-54
2022/09/14 12:08:36;;;;;;;1.73;1.63;;;18.90;99.90;;;;;;5087983;28;20315;-53
2022/09/14 12:11:29;;;;;;;1.70;1.60;;;18.80;99.90;;;;;;5086439;28;20287;-53
2022/09/14 12:14:25;;;;;;;1.48;1.40;;;18.80;99.90;;;;;;5082189;28;20203;-53
2022/09/14 12:17:15;;;;;;;2.55;1.60;;;18.80;99.90;;;;;;5080224;28;20649;-52
2022/09/14 12:20:42;;;;;;;1.60;1.50;;;18.80;99.90;;;;;;5087174;28;20254;-53
2022/09/14 12:23:22;;;;;;;1.17;1.17;;;18.80;99.90;;;;;;5048613;28;20200;-53
2022/09/14 12:26:27;;;;;;;1.15;1.10;;;18.70;99.90;;;;;;5081937;28;20204;-53
2022/09/14 12:29:01;;;;;;;0.60;0.60;;;18.70;99.90;;;;;;5087535;28;20270;-54
2022/09/14 12:31:37;;;;;;;1.50;1.23;;;18.60;99.90;;;;;;5088259;28;20726;-53
2022/09/14 12:34:18;;;;;;;3.10;1.00;;;18.70;99.90;;;;;;5080964;28;20196;-53
2022/09/14 12:37:25;;;;;;;0.80;0.63;;;18.60;99.90;;;;;;5083343;28;20227;-53
2022/09/14 12:40:35;;;;;;;1.33;0.70;;;18.60;99.90;;;;;;5091622;28;20807;-53
2022/09/14 12:43:45;;;;;;;0.80;0.80;;;18.60;99.90;;;;;;5082788;28;20286;-51
2022/09/14 12:46:37;;;;;;;0.70;0.70;;;18.60;99.90;;;;;;5057027;28;20231;-50
2022/09/14 12:49:34;;;;;;;1.00;0.90;;;18.60;99.90;;;;;;5087556;28;20235;-50
2022/09/14 12:52:19;;;;;;;1.42;0.95;;;18.60;99.90;;;;;;5085560;28;20252;-50
2022/09/14 12:55:01;;;;;;;1.15;0.93;;;18.60;99.90;;;;;;5081966;28;20720;-50
2022/09/14 12:57:37;;;;;;;2.90;0.90;;;18.60;99.90;;;;;;5086184;28;20739;-50
2022/09/14 13:00:12;;;;;;;1.15;0.85;;;18.60;99.90;;;;;;5086801;28;20192;-53
2022/09/14 13:03:03;;;;;;;0.55;0.55;;;18.60;99.90;;;;;;5088491;28;20338;-53
2022/09/14 13:05:33;;;;;;;1.02;0.93;;;18.60;99.90;;;;;;5087699;28;20208;-53
2022/09/14 13:08:10;;;;;;;1.48;0.88;;;18.60;99.90;;;;;;5090347;28;20314;-52